createdAt,value
2023-01-02T00:00:05.590Z,11.31
2023-01-02T00:04:18.517Z,11.28
2023-01-02T00:08:20.732Z,11.31
2023-01-02T00:12:23.121Z,11.31
2023-01-02T00:16:25.716Z,11.33
2023-01-02T00:20:29.758Z,11.30
2023-01-02T00:24:33.612Z,11.00
2023-01-02T00:28:36.959Z,11.00
2023-01-02T00:32:39.265Z,11.09
2023-01-02T00:36:41.504Z,11.16
2023-01-02T00:40:43.612Z,11.18
2023-01-02T00:44:45.976Z,11.18
2023-01-02T00:48:48.279Z,11.22
2023-01-02T00:52:50.582Z,11.22
2023-01-02T00:56:54.098Z,11.24
2023-01-02T01:00:56.340Z,11.24
2023-01-02T01:05:08.612Z,11.17
2023-01-02T01:09:15.445Z,11.20
2023-01-02T01:13:18.776Z,11.20
2023-01-02T01:17:21.034Z,11.13
2023-01-02T01:21:23.871Z,11.03
2023-01-02T01:25:26.600Z,10.97
2023-01-02T01:29:28.773Z,10.97
2023-01-02T01:33:32.206Z,11.07
2023-01-02T01:37:34.514Z,11.14
2023-01-02T01:41:36.857Z,11.11
2023-01-02T01:45:44.367Z,11.08
2023-01-02T01:50:11.247Z,11.09
2023-01-02T01:54:18.274Z,11.12
2023-01-02T01:58:29.009Z,11.05
2023-01-02T02:02:33.401Z,11.01
2023-01-02T02:06:36.418Z,11.07
2023-01-02T02:10:38.530Z,10.98
2023-01-02T02:14:40.681Z,10.90
2023-01-02T02:19:10.697Z,10.80
2023-01-02T02:23:31.403Z,10.68
2023-01-02T02:28:09.115Z,10.64
2023-01-02T02:32:25.091Z,10.58
2023-01-02T02:36:38.823Z,10.38
2023-01-02T02:40:49.906Z,10.40
2023-01-02T02:45:12.272Z,10.49
2023-01-02T02:49:26.859Z,10.60
2023-01-02T02:53:40.401Z,10.65
2023-01-02T02:57:44.904Z,10.70
2023-01-02T03:01:47.306Z,10.79
2023-01-02T03:06:08.421Z,10.87
2023-01-02T03:10:43.599Z,10.94
2023-01-02T03:15:02.627Z,10.95
2023-01-02T03:19:09.982Z,10.97
2023-01-02T03:23:23.780Z,10.97
2023-01-02T03:27:31.262Z,10.99
2023-01-02T03:31:39.498Z,11.00
2023-01-02T03:35:46.845Z,11.03
2023-01-02T03:39:54.539Z,11.02
2023-01-02T03:43:59.293Z,11.04
2023-01-02T03:48:10.467Z,11.04
2023-01-02T03:52:12.593Z,11.07
2023-01-02T03:56:24.427Z,11.07
2023-01-02T04:00:35.802Z,11.01
2023-01-02T04:04:53.250Z,11.09
2023-01-02T04:09:09.615Z,11.12
2023-01-02T04:13:19.912Z,11.10
2023-01-02T04:17:25.574Z,11.08
2023-01-02T04:21:32.604Z,11.06
2023-01-02T04:25:50.422Z,11.10
2023-01-02T04:29:53.056Z,10.96
2023-01-02T04:33:59.320Z,10.83
2023-01-02T04:38:12.330Z,10.78
2023-01-02T04:42:14.603Z,10.88
2023-01-02T04:46:16.709Z,10.88
2023-01-02T04:50:19.115Z,10.80
2023-01-02T04:54:21.270Z,10.86
2023-01-02T04:58:23.514Z,10.82
2023-01-02T05:02:25.742Z,10.82
2023-01-02T05:06:27.931Z,10.80
2023-01-02T05:10:30.113Z,10.82
2023-01-02T05:14:32.340Z,10.94
2023-01-02T05:18:35.208Z,10.96
2023-01-02T05:23:01.042Z,11.02
2023-01-02T05:27:03.412Z,11.06
2023-01-02T05:31:07.648Z,11.09
2023-01-02T05:35:10.752Z,11.11
2023-01-02T05:39:14.456Z,11.13
2023-01-02T05:43:16.657Z,11.15
2023-01-02T05:47:18.868Z,11.16
2023-01-02T05:51:21.101Z,11.18
2023-01-02T05:55:23.324Z,11.19
2023-01-02T05:59:25.510Z,11.19
2023-01-02T06:03:27.755Z,11.20
2023-01-02T06:07:29.894Z,11.18
2023-01-02T06:11:32.550Z,11.16
2023-01-02T06:16:00.690Z,11.16
2023-01-02T06:20:03.630Z,11.16
2023-01-02T06:24:06.015Z,11.15
2023-01-02T06:28:08.251Z,11.15
2023-01-02T06:32:10.576Z,11.10
2023-01-02T06:36:18.989Z,10.95
2023-01-02T06:40:21.111Z,10.84
2023-01-02T06:44:24.102Z,10.83
2023-01-02T06:48:26.962Z,10.71
2023-01-02T06:52:29.281Z,10.78
2023-01-02T06:56:31.460Z,10.71
2023-01-02T07:00:33.696Z,10.80
2023-01-02T07:04:38.102Z,10.92
2023-01-02T07:08:43.253Z,10.93
2023-01-02T07:12:45.383Z,10.91
2023-01-02T07:16:47.622Z,10.95
2023-01-02T07:20:59.010Z,10.94
2023-01-02T07:25:01.991Z,10.82
2023-01-02T07:29:04.213Z,10.91
2023-01-02T07:33:06.445Z,11.02
2023-01-02T07:37:09.167Z,11.09
2023-01-02T07:41:20.142Z,10.90
2023-01-02T07:45:22.355Z,11.01
2023-01-02T07:49:24.510Z,10.97
2023-01-02T07:53:26.931Z,10.97
2023-01-02T07:57:32.147Z,11.09
2023-01-02T08:01:34.381Z,11.20
2023-01-02T08:05:36.614Z,11.28
2023-01-02T08:09:38.831Z,11.42
2023-01-02T08:13:41.326Z,11.51
2023-01-02T08:17:43.543Z,11.47
2023-01-02T08:21:45.684Z,11.59
2023-01-02T08:25:54.084Z,11.66
2023-01-02T08:30:00.870Z,11.66
2023-01-02T08:34:03.426Z,11.71
2023-01-02T08:38:05.914Z,11.65
2023-01-02T08:42:09.173Z,11.73
2023-01-02T08:46:11.491Z,11.78
2023-01-02T08:50:14.559Z,11.77
2023-01-02T08:54:16.694Z,11.70
2023-01-02T08:58:18.865Z,11.98
2023-01-02T09:02:21.062Z,12.06
2023-01-02T09:06:25.475Z,12.11
2023-01-02T09:10:27.637Z,12.16
2023-01-02T09:14:30.002Z,12.38
2023-01-02T09:18:32.250Z,12.55
2023-01-02T09:22:37.817Z,12.66
2023-01-02T09:26:42.788Z,12.74
2023-01-02T09:30:45.229Z,12.68
2023-01-02T09:34:50.546Z,12.71
2023-01-02T09:38:57.640Z,12.72
2023-01-02T09:43:00.327Z,12.63
2023-01-02T09:47:16.537Z,12.60
2023-01-02T09:51:18.892Z,12.70
2023-01-02T09:55:55.355Z,12.67
2023-01-02T10:00:17.155Z,12.84
2023-01-02T10:04:48.569Z,12.88
2023-01-02T10:09:01.583Z,12.96
2023-01-02T10:14:16.844Z,12.94
2023-01-02T10:18:14.642Z,12.95
2023-01-02T10:22:25.378Z,12.89
2023-01-02T10:26:36.266Z,12.95
2023-01-02T10:30:48.649Z,12.61
2023-01-02T10:35:06.891Z,12.43
2023-01-02T10:39:20.374Z,12.68
2023-01-02T10:43:22.765Z,12.87
2023-01-02T10:47:35.177Z,12.88
2023-01-02T10:51:42.402Z,12.89
2023-01-02T10:55:45.777Z,13.04
2023-01-02T11:00:00.370Z,13.10
2023-01-02T11:04:03.793Z,12.98
2023-01-02T11:08:14.305Z,13.10
2023-01-02T11:12:16.518Z,13.13
2023-01-02T11:16:19.852Z,13.18
2023-01-02T11:20:29.875Z,13.27
2023-01-02T11:24:33.160Z,13.38
2023-01-02T11:28:35.955Z,13.50
2023-01-02T11:32:41.417Z,13.52
2023-01-02T11:36:44.810Z,13.59
2023-01-02T11:40:55.276Z,13.60
2023-01-02T11:45:09.083Z,13.65
2023-01-02T11:49:18.303Z,13.39
2023-01-02T11:53:27.372Z,13.54
2023-01-02T11:57:41.511Z,13.57
2023-01-02T12:02:06.098Z,13.55
2023-01-02T12:06:28.880Z,13.42
2023-01-02T12:10:49.704Z,13.64
2023-01-02T12:15:07.166Z,13.53
2023-01-02T12:19:37.033Z,13.42
2023-01-02T12:24:01.292Z,13.39
2023-01-02T12:28:14.839Z,13.48
2023-01-02T12:32:52.340Z,13.51
2023-01-02T12:37:17.334Z,13.60
2023-01-02T12:42:01.912Z,13.89
2023-01-02T12:46:19.183Z,14.06
2023-01-02T12:50:54.594Z,14.25
2023-01-02T12:55:17.231Z,14.28
2023-01-02T12:59:41.366Z,14.22
2023-01-02T13:04:05.391Z,14.29
2023-01-02T13:09:31.703Z,14.28
2023-01-02T13:26:16.873Z,14.22
2023-01-02T13:30:39.496Z,14.30
2023-01-02T13:34:54.434Z,14.21
2023-01-02T13:39:20.064Z,14.19
2023-01-02T13:43:31.052Z,14.32
2023-01-02T13:47:37.662Z,14.42
2023-01-02T13:51:40.291Z,14.04
2023-01-02T13:55:42.474Z,14.17
2023-01-02T13:59:58.986Z,14.24
2023-01-02T14:04:07.757Z,14.17
2023-01-02T14:08:37.810Z,13.91
2023-01-02T14:12:53.795Z,13.97
2023-01-02T14:17:33.867Z,13.89
2023-01-02T14:22:00.658Z,13.97
2023-01-02T14:26:06.074Z,13.95
2023-01-02T14:30:16.193Z,13.94
2023-01-02T14:34:25.641Z,13.94
2023-01-02T14:38:34.360Z,13.93
2023-01-02T14:42:58.428Z,13.90
2023-01-02T14:47:04.408Z,13.79
2023-01-02T14:51:21.426Z,13.60
2023-01-02T14:55:27.935Z,13.53
2023-01-02T14:59:40.663Z,13.47
2023-01-02T15:04:08.151Z,13.52
2023-01-02T15:08:15.566Z,13.41
2023-01-02T15:12:46.927Z,13.01
2023-01-02T15:16:58.317Z,12.97
2023-01-02T15:21:12.383Z,12.87
2023-01-02T15:25:33.505Z,12.91
2023-01-02T15:29:36.046Z,12.98
2023-01-02T15:33:39.165Z,12.93
2023-01-02T15:37:48.645Z,12.81
2023-01-02T15:41:57.401Z,12.89
2023-01-02T15:46:02.844Z,12.92
2023-01-02T15:50:14.978Z,12.96
2023-01-02T15:54:18.777Z,13.00
2023-01-02T15:58:32.321Z,12.91
2023-01-02T16:02:46.456Z,12.95
2023-01-02T16:06:49.021Z,12.96
2023-01-02T16:11:01.618Z,13.01
2023-01-02T16:15:04.580Z,12.99
2023-01-02T16:19:32.041Z,12.96
2023-01-02T16:23:34.838Z,12.91
2023-01-02T16:28:02.411Z,12.78
2023-01-02T16:32:04.635Z,12.70
2023-01-02T16:36:20.056Z,12.71
2023-01-02T16:40:59.828Z,12.76
2023-01-02T16:45:07.164Z,12.76
2023-01-02T16:49:14.455Z,12.73
2023-01-02T16:53:29.953Z,12.69
2023-01-02T16:57:32.244Z,12.51
2023-01-02T17:01:36.100Z,12.53
2023-01-02T17:05:47.067Z,12.56
2023-01-02T17:10:06.447Z,12.58
2023-01-02T17:14:09.690Z,12.55
2023-01-02T17:18:13.512Z,12.48
2023-01-02T17:22:15.681Z,12.39
2023-01-02T17:26:17.945Z,12.32
2023-01-02T17:30:20.870Z,12.25
2023-01-02T17:34:25.262Z,12.16
2023-01-02T17:38:32.029Z,12.10
2023-01-02T17:42:35.724Z,12.07
2023-01-02T17:47:09.242Z,12.02
2023-01-02T17:51:00.772Z,12.02
2023-01-02T17:55:03.449Z,12.02
2023-01-02T17:59:06.330Z,12.01
2023-01-02T18:03:08.756Z,11.93
2023-01-02T18:07:15.684Z,11.92
2023-01-02T18:11:19.294Z,11.72
2023-01-02T18:15:22.607Z,11.48
2023-01-02T18:19:28.095Z,11.57
2023-01-02T18:23:32.523Z,11.71
2023-01-02T18:27:48.477Z,11.83
2023-01-02T18:32:03.072Z,11.89
2023-01-02T18:36:18.628Z,11.95
2023-01-02T18:40:50.998Z,12.01
2023-01-02T18:44:55.469Z,12.02
2023-01-02T18:48:57.835Z,12.03
2023-01-02T18:53:15.297Z,11.97
2023-01-02T18:57:23.036Z,11.98
2023-01-02T19:01:27.899Z,11.98
2023-01-02T19:05:33.025Z,11.97
2023-01-02T19:09:38.285Z,11.99
2023-01-02T19:13:40.928Z,11.99
2023-01-02T19:17:43.562Z,11.92
2023-01-02T19:21:46.144Z,11.74
2023-01-02T19:25:49.533Z,11.58
2023-01-02T19:29:53.907Z,11.60
2023-01-02T19:34:01.084Z,11.54
2023-01-02T19:38:27.205Z,11.56
2023-01-02T19:42:32.380Z,11.55
2023-01-02T19:46:47.301Z,11.55
2023-01-02T19:50:50.228Z,11.42
2023-01-02T19:54:54.178Z,11.22
2023-01-02T19:58:59.173Z,11.17
2023-01-02T20:03:05.156Z,10.83
2023-01-02T20:07:10.262Z,10.90
2023-01-02T20:11:34.122Z,10.98
2023-01-02T20:15:41.604Z,11.07
2023-01-02T20:19:45.469Z,11.05
2023-01-02T20:23:54.448Z,11.08
2023-01-02T20:28:00.146Z,11.04
2023-01-02T20:32:02.823Z,10.92
2023-01-02T20:36:11.400Z,10.67
2023-01-02T20:40:19.005Z,10.54
2023-01-02T20:44:22.791Z,10.66
2023-01-02T20:48:25.631Z,10.68
2023-01-02T20:52:28.448Z,10.64
2023-01-02T20:56:34.037Z,10.51
2023-01-02T21:00:37.812Z,10.53
2023-01-02T21:04:40.772Z,10.52
2023-01-02T21:08:43.502Z,10.52
2023-01-02T21:13:04.169Z,10.51
2023-01-02T21:17:06.339Z,10.41
2023-01-02T21:21:11.765Z,10.40
2023-01-02T21:25:14.376Z,10.36
2023-01-02T21:29:16.603Z,10.38
2023-01-02T21:33:21.433Z,10.30
2023-01-02T21:37:27.354Z,10.09
2023-01-02T21:41:50.131Z,10.16
2023-01-02T21:45:53.937Z,10.16
2023-01-02T21:49:56.830Z,10.13
2023-01-02T21:54:00.842Z,10.12
2023-01-02T21:58:13.006Z,10.01
2023-01-02T22:02:17.126Z,9.87
2023-01-02T22:06:19.481Z,9.87
2023-01-02T22:10:22.002Z,9.82
2023-01-02T22:14:32.081Z,9.73
2023-01-02T22:18:38.124Z,9.56
2023-01-02T22:22:40.809Z,9.49
2023-01-02T22:26:45.311Z,9.41
2023-01-02T22:30:47.373Z,9.40
2023-01-02T22:34:50.318Z,9.33
2023-01-02T22:39:25.966Z,9.30
2023-01-02T22:43:20.871Z,9.25
2023-01-02T22:47:30.169Z,9.26
2023-01-02T22:52:05.583Z,9.23
2023-01-02T22:55:56.586Z,9.19
2023-01-02T22:59:58.974Z,9.18
2023-01-02T23:04:01.491Z,9.10
2023-01-02T23:08:04.000Z,9.14
2023-01-02T23:12:06.582Z,9.09
2023-01-02T23:16:27.867Z,9.03
2023-01-02T23:20:30.198Z,9.02
2023-01-02T23:24:37.394Z,8.97
2023-01-02T23:29:06.143Z,8.89
2023-01-02T23:33:01.722Z,8.83
2023-01-02T23:37:04.508Z,8.82
2023-01-02T23:41:06.813Z,8.82
2023-01-02T23:45:10.213Z,8.75
2023-01-02T23:49:12.551Z,8.55
2023-01-02T23:53:14.749Z,8.59
2023-01-02T23:57:18.865Z,8.62
